Time;durP1;ratioP1;P1;durP2;ratioP2;P2;SDS_P1;SDS_P2;PMS_P1;PMS_P2;Temp;Humidity;BMP_temperature;BMP_pressure;BME280_temperature;BME280_humidity;BME280_pressure;Samples;Min_cycle;Max_cycle;Signal;HPM_P1;HPM_P2
2023/01/07 00:01:27;;;;;;;9.80;6.00;;;9.30;99.90;;;;;;6079075;23;20017;-66
2023/01/07 00:03:54;;;;;;;7.43;5.60;;;9.40;99.90;;;;;;6079593;23;20504;-67
2023/01/07 00:06:22;;;;;;;12.00;5.85;;;9.50;99.90;;;;;;6080248;23;20232;-68
2023/01/07 00:08:49;;;;;;;8.27;5.63;;;9.60;99.90;;;;;;6075826;23;20010;-68
2023/01/07 00:11:20;;;;;;;9.65;6.40;;;9.60;99.90;;;;;;6080222;23;20277;-68
2023/01/07 00:13:51;;;;;;;7.80;6.00;;;9.60;99.90;;;;;;6077752;23;20357;-68
2023/01/07 00:16:19;;;;;;;8.75;6.03;;;9.60;99.90;;;;;;6077876;23;20352;-68
2023/01/07 00:18:45;;;;;;;7.88;6.20;;;9.60;99.90;;;;;;6078895;23;20599;-72
2023/01/07 00:21:16;;;;;;;8.57;5.43;;;9.60;99.90;;;;;;6070628;23;20011;-71
2023/01/07 00:23:43;;;;;;;8.10;5.80;;;9.70;99.90;;;;;;6080145;23;20018;-72
2023/01/07 00:26:12;;;;;;;9.57;5.25;;;9.60;99.90;;;;;;6079266;23;20050;-72
2023/01/07 00:28:40;;;;;;;7.55;5.30;;;9.50;99.90;;;;;;6080131;23;20041;-72
2023/01/07 00:31:12;;;;;;;11.38;6.07;;;9.50;99.90;;;;;;6077375;23;20495;-72
2023/01/07 00:34:05;;;;;;;8.15;5.07;;;9.40;99.90;;;;;;6079967;23;20007;-72
2023/01/07 00:36:42;;;;;;;8.38;5.03;;;9.40;99.90;;;;;;6082940;23;20013;-71
2023/01/07 00:39:12;;;;;;;8.10;4.90;;;9.30;99.90;;;;;;6074205;23;20017;-68
2023/01/07 00:41:38;;;;;;;7.07;4.72;;;9.20;99.90;;;;;;6078862;23;20528;-67
2023/01/07 00:44:05;;;;;;;6.57;4.40;;;9.10;99.90;;;;;;6077489;23;20465;-67
2023/01/07 00:46:31;;;;;;;7.18;4.60;;;8.90;99.90;;;;;;6078032;23;20074;-67
2023/01/07 00:48:57;;;;;;;7.63;4.97;;;8.90;99.90;;;;;;6079146;23;20090;-67
2023/01/07 00:51:23;;;;;;;6.47;4.50;;;8.80;99.90;;;;;;6080579;23;20082;-67
2023/01/07 00:53:49;;;;;;;7.47;5.35;;;8.70;99.90;;;;;;6080666;23;20315;-68
2023/01/07 00:56:17;;;;;;;9.95;5.20;;;8.60;99.90;;;;;;6075107;23;20007;-68
2023/01/07 00:58:43;;;;;;;9.02;5.78;;;8.60;99.90;;;;;;6080195;23;20011;-67
2023/01/07 01:01:10;;;;;;;8.63;5.88;;;8.60;99.90;;;;;;6079357;23;20081;-67
2023/01/07 01:03:36;;;;;;;8.27;5.35;;;8.50;99.90;;;;;;6080929;23;20050;-66
2023/01/07 01:06:03;;;;;;;8.80;5.82;;;8.50;99.90;;;;;;6076910;23;20009;-66
2023/01/07 01:08:28;;;;;;;10.25;5.60;;;8.40;99.90;;;;;;6082204;23;20106;-67
2023/01/07 01:10:54;;;;;;;7.60;5.80;;;8.40;99.90;;;;;;6081091;23;20227;-67
2023/01/07 01:13:21;;;;;;;7.97;5.20;;;8.30;99.90;;;;;;6083068;23;20109;-68
2023/01/07 01:15:48;;;;;;;8.32;5.75;;;8.30;99.90;;;;;;6080924;23;20025;-67
2023/01/07 01:18:14;;;;;;;10.35;5.95;;;8.20;99.90;;;;;;6081175;23;20013;-66
2023/01/07 01:20:40;;;;;;;9.05;5.65;;;8.20;99.90;;;;;;6082763;23;20002;-68
2023/01/07 01:23:06;;;;;;;9.30;5.55;;;8.20;99.90;;;;;;6077985;23;20025;-67
2023/01/07 01:25:33;;;;;;;10.45;6.60;;;8.30;99.90;;;;;;6079905;23;20003;-66
2023/01/07 01:27:58;;;;;;;13.85;9.13;;;8.40;99.90;;;;;;6080705;23;20018;-67
2023/01/07 01:30:24;;;;;;;8.85;5.65;;;8.30;99.90;;;;;;6081795;23;20124;-67
2023/01/07 01:32:49;;;;;;;9.73;6.47;;;8.30;99.90;;;;;;6082933;23;20010;-71
2023/01/07 01:35:15;;;;;;;12.52;8.85;;;8.40;99.90;;;;;;6082166;23;20006;-71
2023/01/07 01:37:41;;;;;;;15.02;10.23;;;8.40;99.90;;;;;;6082531;23;20010;-71
2023/01/07 01:40:08;;;;;;;13.48;8.00;;;8.40;99.90;;;;;;6083645;23;20006;-70
2023/01/07 01:42:34;;;;;;;9.45;6.38;;;8.50;99.90;;;;;;6082081;23;20523;-71
2023/01/07 01:45:00;;;;;;;7.30;5.70;;;8.60;99.90;;;;;;6084021;23;19998;-71
2023/01/07 01:47:41;;;;;;;10.18;6.53;;;8.60;99.90;;;;;;6082338;23;20046;-71
2023/01/07 01:50:19;;;;;;;11.50;7.35;;;8.80;99.90;;;;;;6081546;23;20015;-71
2023/01/07 01:53:20;;;;;;;13.02;9.73;;;8.90;99.90;;;;;;6085111;23;20013;-71
2023/01/07 01:55:50;;;;;;;17.92;13.43;;;9.10;99.90;;;;;;6079732;23;20017;-71
2023/01/07 01:58:23;;;;;;;13.90;8.98;;;9.20;99.90;;;;;;6082864;23;20015;-72
2023/01/07 02:00:49;;;;;;;9.85;6.70;;;9.20;99.90;;;;;;6083448;23;20006;-73
2023/01/07 02:03:18;;;;;;;10.05;7.10;;;9.30;99.90;;;;;;6085298;23;20018;-73
2023/01/07 02:05:45;;;;;;;16.77;10.48;;;9.30;99.90;;;;;;6081808;23;20006;-73
2023/01/07 02:08:11;;;;;;;10.85;6.93;;;9.40;99.90;;;;;;6080340;23;20395;-73
2023/01/07 02:10:37;;;;;;;8.73;6.32;;;9.40;99.90;;;;;;6079092;23;20417;-73
2023/01/07 02:13:25;;;;;;;12.77;7.47;;;9.40;99.90;;;;;;6078688;23;20017;-73
2023/01/07 02:16:23;;;;;;;11.15;8.13;;;9.40;99.90;;;;;;6076405;23;20011;-73
2023/01/07 02:19:24;;;;;;;10.75;7.32;;;9.50;99.90;;;;;;6027708;23;20013;-73
2023/01/07 02:22:19;;;;;;;13.70;8.18;;;9.50;99.90;;;;;;6076861;23;20742;-74
2023/01/07 02:24:47;;;;;;;13.85;8.13;;;9.50;99.90;;;;;;6037199;23;20050;-73
2023/01/07 02:27:25;;;;;;;9.93;7.15;;;9.50;99.90;;;;;;6078838;23;20022;-73
2023/01/07 02:30:28;;;;;;;9.57;6.88;;;9.50;99.90;;;;;;6079975;23;20706;-73
2023/01/07 02:33:47;;;;;;;11.55;7.07;;;9.50;99.90;;;;;;6077547;23;20005;-72
2023/01/07 02:36:33;;;;;;;11.70;8.55;;;9.50;99.90;;;;;;5986865;23;20011;-73
2023/01/07 02:39:04;;;;;;;9.18;6.78;;;9.60;99.90;;;;;;5976729;23;20155;-72
2023/01/07 02:41:56;;;;;;;14.13;9.73;;;9.60;99.90;;;;;;6054800;23;20357;-71
2023/01/07 02:44:21;;;;;;;;;;;9.60;99.90;;;;;;6078957;23;20018;-72
2023/01/07 02:46:59;;;;;;;14.15;7.68;;;9.60;99.90;;;;;;6073143;23;20563;-72
2023/01/07 02:49:25;;;;;;;8.68;6.68;;;9.60;99.90;;;;;;6077212;23;20081;-71
2023/01/07 02:51:50;;;;;;;10.27;7.15;;;9.70;99.90;;;;;;6078860;23;20165;-71
2023/01/07 02:54:27;;;;;;;13.40;7.82;;;9.60;99.90;;;;;;6078011;23;20010;-71
2023/01/07 02:57:12;;;;;;;12.57;8.63;;;9.60;99.90;;;;;;6077645;23;20014;-74
2023/01/07 02:59:58;;;;;;;12.73;7.60;;;9.60;99.90;;;;;;6080976;23;20009;-73
2023/01/07 03:02:29;;;;;;;11.60;7.80;;;9.60;99.90;;;;;;6034922;23;20195;-73
2023/01/07 03:04:55;;;;;;;10.82;7.78;;;9.60;99.90;;;;;;6077588;23;20377;-73
2023/01/07 03:07:45;;;;;;;11.90;7.63;;;9.60;99.90;;;;;;6079510;23;20480;-73
2023/01/07 03:10:28;;;;;;;14.85;9.52;;;9.50;99.90;;;;;;6080615;23;20061;-74
2023/01/07 03:13:03;;;;;;;14.07;9.68;;;9.40;99.90;;;;;;6081231;23;20007;-73
2023/01/07 03:16:10;;;;;;;10.02;8.13;;;9.50;99.90;;;;;;6080399;23;20026;-74
2023/01/07 03:18:44;;;;;;;12.05;7.82;;;9.50;99.90;;;;;;6079212;23;20023;-74
2023/01/07 03:21:13;;;;;;;9.93;7.28;;;9.40;99.90;;;;;;6082000;23;20013;-74
2023/01/07 03:23:44;;;;;;;13.68;8.32;;;9.40;99.90;;;;;;6081279;23;20042;-74
2023/01/07 03:26:11;;;;;;;14.50;8.93;;;9.40;99.90;;;;;;6078057;23;20527;-74
2023/01/07 03:28:40;;;;;;;10.85;7.55;;;9.40;99.90;;;;;;6080160;23;20026;-74
2023/01/07 03:31:11;;;;;;;9.80;7.30;;;9.30;99.90;;;;;;6080120;23;20563;-74
2023/01/07 03:33:46;;;;;;;15.23;9.48;;;9.30;99.90;;;;;;6079672;23;20010;-74
2023/01/07 03:36:15;;;;;;;17.30;12.18;;;9.20;99.90;;;;;;6080775;23;20337;-73
2023/01/07 03:38:43;;;;;;;19.40;11.80;;;9.10;99.90;;;;;;6080514;23;20002;-73
2023/01/07 03:42:38;;;;;;;16.30;11.63;;;9.00;99.90;;;;;;6076672;23;20002;-74
2023/01/07 03:43:55;;;;;;;13.95;8.50;;;9.00;99.90;;;;;;6079619;23;20030;-76
2023/01/07 03:46:20;;;;;;;9.75;7.95;;;9.00;99.90;;;;;;6081156;23;20006;-74
2023/01/07 03:48:46;;;;;;;9.48;6.93;;;9.00;99.90;;;;;;6075966;23;20780;-74
2023/01/07 03:51:11;;;;;;;11.13;8.10;;;9.00;99.90;;;;;;6077196;23;20042;-74
2023/01/07 03:53:38;;;;;;;13.32;7.85;;;8.90;99.90;;;;;;6075243;23;20013;-73
2023/01/07 03:56:04;;;;;;;13.15;7.78;;;8.80;99.90;;;;;;6067955;23;20511;-74
2023/01/07 03:58:30;;;;;;;9.65;7.30;;;8.60;99.90;;;;;;6077443;23;20081;-74
2023/01/07 04:00:55;;;;;;;10.10;7.10;;;8.40;99.90;;;;;;6079982;23;20008;-74
2023/01/07 04:03:21;;;;;;;11.77;7.05;;;8.10;99.90;;;;;;6080899;23;20025;-74
2023/01/07 04:05:46;;;;;;;10.05;6.00;;;7.90;99.90;;;;;;6079468;23;20456;-74
2023/01/07 04:08:12;;;;;;;10.00;6.18;;;7.70;99.90;;;;;;6079949;23;20012;-74
2023/01/07 04:10:38;;;;;;;9.93;6.30;;;7.50;99.90;;;;;;6078434;23;20080;-73
2023/01/07 04:13:03;;;;;;;8.18;6.00;;;7.40;99.90;;;;;;6079328;23;20007;-74
2023/01/07 04:15:29;;;;;;;12.05;7.22;;;7.30;99.90;;;;;;6078098;23;20100;-73
2023/01/07 04:17:55;;;;;;;11.15;6.80;;;7.30;99.90;;;;;;6079458;23;20010;-74
2023/01/07 04:20:20;;;;;;;8.60;6.40;;;7.30;99.90;;;;;;6080632;23;20025;-73
2023/01/07 04:22:46;;;;;;;11.07;6.75;;;7.20;99.90;;;;;;6079600;23;20018;-74
2023/01/07 04:25:11;;;;;;;8.35;5.57;;;7.20;99.90;;;;;;6077974;23;20542;-73
2023/01/07 04:27:37;;;;;;;7.65;5.25;;;7.10;99.90;;;;;;6080611;23;20061;-74
2023/01/07 04:30:03;;;;;;;10.90;7.85;;;6.80;99.90;;;;;;6078068;23;20010;-73
2023/01/07 04:32:29;;;;;;;11.60;5.13;;;6.60;99.90;;;;;;6081253;23;20034;-74
2023/01/07 04:34:55;;;;;;;7.93;5.78;;;6.50;99.90;;;;;;6080669;23;20006;-68
2023/01/07 04:37:20;;;;;;;7.97;5.53;;;6.50;99.90;;;;;;6079652;23;20014;-68
2023/01/07 04:39:46;;;;;;;10.55;7.50;;;6.50;99.90;;;;;;6080072;23;20014;-68
2023/01/07 04:42:11;;;;;;;9.57;6.68;;;6.30;99.90;;;;;;6078484;23;20045;-68
2023/01/07 04:44:37;;;;;;;9.30;6.88;;;6.50;99.90;;;;;;6080041;23;20149;-68
2023/01/07 04:47:03;;;;;;;8.93;6.70;;;6.50;99.90;;;;;;6078307;23;20007;-68
2023/01/07 04:49:28;;;;;;;9.95;7.00;;;6.50;99.90;;;;;;6080503;23;20014;-68
2023/01/07 04:51:54;;;;;;;11.32;7.00;;;6.50;99.90;;;;;;6082749;23;20007;-68
2023/01/07 04:54:19;;;;;;;10.55;7.65;;;6.40;99.90;;;;;;6078768;23;20026;-68
2023/01/07 04:56:45;;;;;;;11.25;8.45;;;6.30;99.90;;;;;;6079667;23;20010;-69
2023/01/07 04:59:11;;;;;;;9.02;6.68;;;6.30;99.90;;;;;;6077299;23;20560;-68
2023/01/07 05:01:36;;;;;;;9.38;5.75;;;6.30;99.90;;;;;;6079775;23;20658;-68
2023/01/07 05:04:02;;;;;;;8.80;6.30;;;6.10;99.90;;;;;;6074870;23;20084;-68
2023/01/07 05:06:28;;;;;;;8.93;5.80;;;6.10;99.90;;;;;;6078378;23;20066;-69
2023/01/07 05:08:53;;;;;;;9.15;6.18;;;6.00;99.90;;;;;;6078870;23;20042;-68
2023/01/07 05:11:20;;;;;;;11.95;7.75;;;6.10;99.90;;;;;;6079972;23;20648;-68
2023/01/07 05:13:48;;;;;;;11.65;8.77;;;6.00;99.90;;;;;;6079384;23;20955;-69
2023/01/07 05:16:14;;;;;;;11.23;7.50;;;6.00;99.90;;;;;;6080081;23;20011;-68
2023/01/07 05:18:39;;;;;;;10.05;7.18;;;6.00;99.90;;;;;;6078158;23;20013;-69
2023/01/07 05:21:05;;;;;;;9.45;6.85;;;6.10;99.90;;;;;;6081393;23;20006;-68
2023/01/07 05:23:31;;;;;;;11.63;7.28;;;6.10;99.90;;;;;;6078301;23;20014;-69
2023/01/07 05:25:56;;;;;;;10.05;7.13;;;6.10;99.90;;;;;;6076178;23;20042;-68
2023/01/07 05:28:22;;;;;;;8.63;6.10;;;6.00;99.90;;;;;;6077411;23;20069;-68
2023/01/07 05:30:48;;;;;;;9.90;7.25;;;5.90;99.90;;;;;;6078943;23;20489;-68
2023/01/07 05:33:13;;;;;;;9.65;6.18;;;5.80;99.90;;;;;;6081335;23;20433;-68
2023/01/07 05:35:39;;;;;;;7.03;5.57;;;5.80;99.90;;;;;;6078350;23;20006;-68
2023/01/07 05:38:04;;;;;;;17.40;9.45;;;5.70;99.90;;;;;;6078357;23;20440;-68
2023/01/07 05:40:30;;;;;;;31.15;19.63;;;5.70;99.90;;;;;;6079827;23;20018;-69
2023/01/07 05:42:56;;;;;;;25.52;16.33;;;5.40;99.90;;;;;;6078920;23;20029;-68
2023/01/07 05:45:21;;;;;;;21.67;14.10;;;5.40;99.90;;;;;;6081377;23;20002;-68
2023/01/07 05:47:47;;;;;;;8.18;6.30;;;5.30;99.90;;;;;;6081718;23;20013;-68
2023/01/07 05:50:13;;;;;;;13.48;8.20;;;5.30;99.90;;;;;;6081317;23;20054;-69
2023/01/07 05:52:39;;;;;;;14.52;8.77;;;5.40;99.90;;;;;;6082459;23;20006;-68
2023/01/07 05:55:05;;;;;;;12.68;8.90;;;5.50;99.90;;;;;;6080665;23;20072;-68
2023/01/07 05:57:31;;;;;;;8.50;6.22;;;5.50;99.90;;;;;;6079124;23;20113;-68
2023/01/07 05:59:57;;;;;;;6.53;4.90;;;5.50;99.90;;;;;;6080584;23;20411;-68
2023/01/07 06:02:22;;;;;;;10.60;5.93;;;5.50;99.90;;;;;;6081769;23;20057;-68
2023/01/07 06:04:48;;;;;;;9.20;6.75;;;5.50;99.90;;;;;;6081005;23;20709;-68
2023/01/07 06:07:14;;;;;;;7.50;5.45;;;5.50;99.90;;;;;;6082153;23;20478;-68
2023/01/07 06:09:40;;;;;;;14.00;6.38;;;5.50;99.90;;;;;;6085135;23;20010;-68
2023/01/07 06:12:06;;;;;;;8.85;5.35;;;5.60;99.90;;;;;;6084959;23;19999;-68
2023/01/07 06:14:31;;;;;;;7.35;4.85;;;5.50;99.90;;;;;;6083419;23;20041;-69
2023/01/07 06:16:58;;;;;;;8.93;5.90;;;5.40;99.90;;;;;;6084108;23;20010;-68
2023/01/07 06:19:25;;;;;;;10.00;5.82;;;5.30;99.90;;;;;;6086619;23;20025;-68
2023/01/07 06:21:51;;;;;;;9.65;5.50;;;5.40;99.90;;;;;;6083894;23;20054;-68
2023/01/07 06:24:16;;;;;;;7.22;5.30;;;5.40;99.90;;;;;;6085587;23;20019;-68
2023/01/07 06:26:42;;;;;;;9.05;5.75;;;5.30;99.90;;;;;;6083524;23;20018;-68
2023/01/07 06:29:09;;;;;;;5.95;4.97;;;5.10;99.90;;;;;;6082859;23;20546;-68
2023/01/07 06:31:35;;;;;;;9.05;6.03;;;5.10;99.90;;;;;;6082268;23;20009;-68
2023/01/07 06:34:01;;;;;;;8.95;6.05;;;5.00;99.90;;;;;;6081658;23;20020;-68
2023/01/07 06:36:26;;;;;;;9.45;6.70;;;5.10;99.90;;;;;;6081123;23;20042;-68
2023/01/07 06:38:52;;;;;;;8.07;5.45;;;5.10;99.90;;;;;;6082566;23;20002;-69
2023/01/07 06:41:18;;;;;;;8.20;6.40;;;5.20;99.90;;;;;;6081846;23;20006;-69
2023/01/07 06:43:43;;;;;;;8.60;5.65;;;5.20;99.90;;;;;;6081644;23;20069;-69
2023/01/07 06:46:09;;;;;;;8.68;6.30;;;5.20;99.90;;;;;;6081343;23;20480;-69
2023/01/07 06:48:35;;;;;;;10.43;7.13;;;5.30;99.90;;;;;;6082319;23;20024;-69
2023/01/07 06:51:00;;;;;;;9.93;7.10;;;5.40;99.90;;;;;;6080042;23;20029;-68
2023/01/07 06:53:26;;;;;;;11.15;8.80;;;5.50;99.90;;;;;;6081313;23;20018;-69
2023/01/07 06:55:51;;;;;;;8.70;6.13;;;5.60;99.90;;;;;;6079427;23;20377;-68
2023/01/07 06:58:17;;;;;;;8.25;5.68;;;5.60;99.90;;;;;;6082111;23;20016;-69
2023/01/07 07:00:46;;;;;;;7.82;5.72;;;5.50;99.90;;;;;;6079033;23;20099;-68
2023/01/07 07:03:12;;;;;;;8.70;5.63;;;5.30;99.90;;;;;;6080234;23;20336;-69
2023/01/07 07:05:38;;;;;;;13.27;7.85;;;5.20;99.90;;;;;;6082001;23;20010;-68
2023/01/07 07:08:07;;;;;;;9.85;6.90;;;5.30;99.90;;;;;;6081823;23;20484;-69
2023/01/07 07:10:32;;;;;;;10.32;6.57;;;5.30;99.90;;;;;;6080588;23;20006;-68
2023/01/07 07:12:58;;;;;;;7.82;5.68;;;5.30;99.90;;;;;;6080913;23;20150;-69
2023/01/07 07:15:24;;;;;;;7.78;5.63;;;5.30;99.90;;;;;;6079408;23;20010;-68
2023/01/07 07:17:49;;;;;;;8.82;6.25;;;5.30;99.90;;;;;;6079925;23;20007;-69
2023/01/07 07:20:15;;;;;;;11.27;7.43;;;5.40;99.90;;;;;;6081415;23;20002;-69
2023/01/07 07:22:47;;;;;;;10.82;7.43;;;5.40;99.90;;;;;;6079914;23;20013;-68
2023/01/07 07:25:14;;;;;;;13.88;8.23;;;5.40;99.90;;;;;;6081184;23;20041;-68
2023/01/07 07:27:40;;;;;;;7.75;5.03;;;5.40;99.90;;;;;;6081628;23;20018;-68
2023/01/07 07:30:07;;;;;;;6.68;5.10;;;5.40;99.90;;;;;;6079601;23;20858;-69
2023/01/07 07:32:33;;;;;;;7.30;5.10;;;5.30;99.90;;;;;;6080526;23;20605;-68
2023/01/07 07:34:58;;;;;;;9.35;5.97;;;5.20;99.90;;;;;;6081929;23;20508;-68
2023/01/07 07:37:24;;;;;;;8.55;6.63;;;5.20;99.90;;;;;;6081467;23;20030;-68
2023/01/07 07:39:50;;;;;;;9.38;5.00;;;5.30;99.90;;;;;;6081012;23;20006;-69
2023/01/07 07:42:15;;;;;;;7.05;5.07;;;5.30;99.90;;;;;;6081225;23;20013;-69
2023/01/07 07:44:41;;;;;;;8.93;6.38;;;5.00;99.90;;;;;;6077871;23;20096;-69
2023/01/07 07:47:06;;;;;;;10.27;6.75;;;4.90;99.90;;;;;;6080768;23;20464;-68
2023/01/07 07:49:32;;;;;;;12.13;7.90;;;5.00;99.90;;;;;;6081008;23;20425;-68
2023/01/07 07:51:58;;;;;;;9.45;6.65;;;5.20;99.90;;;;;;6076573;23;20120;-69
2023/01/07 07:54:23;;;;;;;13.07;10.50;;;5.50;99.90;;;;;;6081449;23;20429;-69
2023/01/07 07:56:49;;;;;;;16.08;11.77;;;5.70;99.90;;;;;;6077434;23;20093;-69
2023/01/07 07:59:15;;;;;;;22.10;14.13;;;5.80;99.90;;;;;;6079770;23;20002;-69
2023/01/07 08:01:40;;;;;;;19.73;15.43;;;5.90;99.90;;;;;;6078199;23;20006;-70
2023/01/07 08:04:06;;;;;;;28.25;17.75;;;5.90;99.90;;;;;;6078504;23;20022;-70
2023/01/07 08:06:33;;;;;;;20.67;15.63;;;6.10;99.90;;;;;;6078805;23;20013;-70
2023/01/07 08:08:58;;;;;;;18.13;13.98;;;6.20;99.90;;;;;;6078450;23;20105;-70
2023/01/07 08:11:24;;;;;;;13.50;10.98;;;6.30;99.90;;;;;;6081421;23;20077;-68
2023/01/07 08:13:50;;;;;;;11.98;8.10;;;6.40;99.90;;;;;;6080140;23;20837;-69
2023/01/07 08:16:15;;;;;;;9.65;7.97;;;6.40;99.90;;;;;;6082540;23;20011;-69
2023/01/07 08:18:41;;;;;;;10.55;7.93;;;6.40;99.90;;;;;;6077459;23;20045;-69
2023/01/07 08:21:07;;;;;;;14.77;11.93;;;6.40;99.90;;;;;;6074337;23;20006;-70
2023/01/07 08:23:33;;;;;;;21.70;14.05;;;6.40;99.90;;;;;;6079459;23;20058;-70
2023/01/07 08:26:02;;;;;;;21.77;14.82;;;6.50;99.90;;;;;;6080683;23;20539;-70
2023/01/07 08:28:29;;;;;;;22.45;16.70;;;6.60;99.90;;;;;;6078602;23;20030;-67
2023/01/07 08:30:55;;;;;;;21.83;15.85;;;6.60;99.90;;;;;;6084377;23;20073;-69
2023/01/07 08:33:21;;;;;;;23.10;15.50;;;6.70;99.90;;;;;;6083097;23;20034;-69
2023/01/07 08:35:46;;;;;;;22.80;16.05;;;6.90;99.90;;;;;;6082710;23;20017;-70
2023/01/07 08:38:12;;;;;;;22.60;16.05;;;7.00;99.90;;;;;;6078815;23;20451;-70
2023/01/07 08:40:38;;;;;;;21.73;15.70;;;7.20;99.90;;;;;;6079784;23;20029;-70
2023/01/07 08:43:06;;;;;;;18.95;14.43;;;7.50;99.90;;;;;;6079876;23;20089;-69
2023/01/07 08:45:31;;;;;;;20.00;15.68;;;7.70;99.90;;;;;;6082766;23;20013;-70
2023/01/07 08:47:58;;;;;;;23.77;16.70;;;7.80;99.90;;;;;;6080850;23;20332;-69
2023/01/07 08:50:29;;;;;;;17.55;14.85;;;8.00;99.90;;;;;;6074294;23;20017;-70
2023/01/07 08:52:54;;;;;;;20.52;14.55;;;8.10;99.90;;;;;;6079817;23;20009;-71
2023/01/07 08:55:21;;;;;;;18.90;14.38;;;8.30;99.90;;;;;;6080710;23;20010;-71
2023/01/07 08:57:47;;;;;;;18.48;13.93;;;8.40;99.90;;;;;;6078301;23;20547;-71
2023/01/07 09:00:15;;;;;;;18.83;15.13;;;8.70;99.90;;;;;;6077779;23;20013;-69
2023/01/07 09:02:40;;;;;;;20.80;16.60;;;8.90;99.90;;;;;;6079176;23;20017;-70
2023/01/07 09:05:07;;;;;;;17.67;14.00;;;9.00;99.90;;;;;;6078920;23;20018;-69
2023/01/07 09:07:32;;;;;;;12.45;8.90;;;9.00;99.90;;;;;;6076794;23;20009;-72
2023/01/07 09:09:58;;;;;;;9.90;8.18;;;9.10;99.90;;;;;;6076641;23;20010;-72
2023/01/07 09:12:24;;;;;;;9.45;8.10;;;9.30;99.90;;;;;;6077326;23;20785;-72
2023/01/07 09:14:49;;;;;;;14.32;9.05;;;9.40;99.90;;;;;;6082380;23;20081;-72
2023/01/07 09:17:15;;;;;;;14.60;8.60;;;9.50;99.90;;;;;;6085243;23;19998;-72
2023/01/07 09:19:40;;;;;;;14.63;10.20;;;9.50;99.90;;;;;;6078989;23;20014;-72
2023/01/07 09:22:06;;;;;;;26.35;16.58;;;9.60;99.90;;;;;;6080463;23;20416;-70
2023/01/07 09:24:32;;;;;;;17.30;12.30;;;9.60;99.90;;;;;;6079439;23;20028;-70
2023/01/07 09:26:57;;;;;;;20.17;12.05;;;9.60;99.90;;;;;;6080670;23;20018;-70
2023/01/07 09:29:23;;;;;;;11.13;9.10;;;9.70;99.90;;;;;;6082095;23;20097;-70
2023/01/07 09:31:49;;;;;;;12.70;9.35;;;9.70;99.90;;;;;;6079990;23;20007;-71
2023/01/07 09:34:14;;;;;;;13.50;9.88;;;9.70;99.90;;;;;;6077527;23;20071;-69
2023/01/07 09:36:40;;;;;;;13.32;9.45;;;9.80;99.90;;;;;;6074808;23;20109;-71
2023/01/07 09:39:06;;;;;;;13.85;10.52;;;9.80;99.90;;;;;;6077271;23;20010;-70
2023/01/07 09:41:44;;;;;;;15.85;10.70;;;9.90;99.90;;;;;;6080448;23;20334;-70
2023/01/07 09:44:34;;;;;;;12.23;8.45;;;10.00;99.90;;;;;;6083617;23;20184;-69
2023/01/07 09:47:02;;;;;;;14.20;9.80;;;10.00;99.90;;;;;;6074269;23;20443;-70
2023/01/07 09:49:31;;;;;;;14.27;11.25;;;10.10;99.90;;;;;;6077734;23;20081;-70
2023/01/07 09:52:10;;;;;;;18.70;13.20;;;10.20;99.90;;;;;;6071556;23;20436;-70
2023/01/07 09:54:38;;;;;;;14.65;11.52;;;10.20;99.90;;;;;;6078395;23;20010;-70
2023/01/07 09:57:04;;;;;;;12.98;10.63;;;10.30;99.90;;;;;;6078049;23;20007;-70
2023/01/07 09:59:30;;;;;;;13.00;8.98;;;10.30;99.90;;;;;;6080561;23;20006;-70
2023/01/07 10:01:58;;;;;;;14.40;10.40;;;10.40;99.90;;;;;;6078655;23;20080;-68
2023/01/07 10:04:52;;;;;;;9.45;8.05;;;10.50;99.90;;;;;;6077837;23;20041;-67
2023/01/07 10:07:18;;;;;;;11.05;8.27;;;10.50;99.90;;;;;;6076888;23;20450;-68
2023/01/07 10:09:49;;;;;;;9.75;7.40;;;10.50;99.90;;;;;;6073933;23;20663;-67
2023/01/07 10:12:31;;;;;;;9.45;6.82;;;10.60;99.90;;;;;;6079073;23;20594;-67
2023/01/07 10:14:57;;;;;;;9.80;7.50;;;10.60;99.90;;;;;;6079173;23;20002;-67
2023/01/07 10:17:54;;;;;;;10.13;7.90;;;10.70;99.90;;;;;;6084405;23;20007;-67
2023/01/07 10:20:31;;;;;;;9.73;7.15;;;10.80;99.90;;;;;;6076970;23;20006;-67
2023/01/07 10:23:14;;;;;;;9.88;6.55;;;10.80;99.90;;;;;;6070058;23;20511;-66
2023/01/07 10:25:53;;;;;;;10.65;7.50;;;10.80;99.90;;;;;;6072749;23;20010;-69
2023/01/07 10:28:34;;;;;;;13.95;10.30;;;10.90;99.90;;;;;;6066377;23;20014;-66
2023/01/07 10:31:02;;;;;;;9.73;6.72;;;10.90;99.90;;;;;;6078016;23;20278;-67
2023/01/07 10:33:31;;;;;;;10.77;7.32;;;10.90;99.90;;;;;;6076781;23;20010;-66
2023/01/07 10:36:15;;;;;;;9.48;6.90;;;11.00;99.90;;;;;;6080692;23;20014;-67
2023/01/07 10:38:46;;;;;;;11.50;9.05;;;10.90;99.90;;;;;;6081152;23;20010;-68
2023/01/07 10:41:40;;;;;;;20.45;13.88;;;10.90;99.90;;;;;;6081541;23;20082;-67
2023/01/07 10:44:24;;;;;;;113.63;69.53;;;11.00;99.90;;;;;;6076773;23;20022;-68
2023/01/07 10:47:14;;;;;;;23.42;18.05;;;10.90;99.90;;;;;;6084305;23;20012;-69
2023/01/07 10:49:43;;;;;;;21.30;19.08;;;10.90;99.90;;;;;;6087264;23;20058;-69
2023/01/07 10:52:20;;;;;;;13.23;10.68;;;10.90;99.90;;;;;;6086301;23;20002;-69
2023/01/07 10:54:59;;;;;;;14.43;9.25;;;10.90;99.90;;;;;;6087359;23;20014;-68
2023/01/07 10:57:28;;;;;;;13.60;11.50;;;10.90;99.90;;;;;;6088129;23;20011;-69
2023/01/07 10:59:57;;;;;;;10.98;8.85;;;10.90;99.90;;;;;;6082597;23;20146;-69
2023/01/07 11:02:27;;;;;;;17.10;14.63;;;10.90;99.90;;;;;;6085097;23;19999;-68
2023/01/07 11:04:57;;;;;;;12.35;9.85;;;10.90;99.90;;;;;;6082529;23;20069;-68
2023/01/07 11:07:42;;;;;;;17.67;14.45;;;10.90;99.90;;;;;;6082177;23;20002;-68
2023/01/07 11:10:32;;;;;;;15.63;11.88;;;11.00;99.90;;;;;;6080887;23;20006;-68
2023/01/07 11:13:26;;;;;;;20.05;15.52;;;11.00;99.90;;;;;;6084838;23;20041;-68
2023/01/07 11:15:57;;;;;;;12.40;11.05;;;11.00;99.90;;;;;;6085302;23;20433;-68
2023/01/07 11:18:26;;;;;;;12.55;9.43;;;11.10;99.90;;;;;;6084520;23;20010;-68
2023/01/07 11:20:54;;;;;;;11.77;8.50;;;11.10;99.90;;;;;;6078221;23;20041;-69
2023/01/07 11:23:40;;;;;;;10.73;7.68;;;11.20;99.90;;;;;;6083176;23;20018;-69
2023/01/07 11:26:31;;;;;;;9.90;7.63;;;11.20;99.90;;;;;;6084315;23;20017;-69
2023/01/07 11:28:58;;;;;;;13.48;8.27;;;11.10;99.90;;;;;;6081528;23;20081;-70
2023/01/07 11:31:51;;;;;;;10.00;7.72;;;11.10;99.90;;;;;;6084620;23;20006;-70
2023/01/07 11:34:30;;;;;;;11.27;7.85;;;11.10;99.90;;;;;;6082952;23;20647;-69
2023/01/07 11:36:56;;;;;;;11.88;8.18;;;11.10;99.90;;;;;;6087167;23;20006;-69
2023/01/07 11:39:28;;;;;;;9.88;7.32;;;11.00;99.90;;;;;;6081111;23;20013;-70
2023/01/07 11:45:11;;;;;;;12.30;8.80;;;11.00;99.90;;;;;;6083044;23;20042;-70
2023/01/07 11:47:38;;;;;;;13.20;9.07;;;11.00;99.90;;;;;;6081891;23;20017;-70
2023/01/07 11:50:04;;;;;;;12.13;9.70;;;11.00;99.90;;;;;;6076894;23;20002;-70
2023/01/07 11:52:31;;;;;;;12.88;10.90;;;11.00;99.90;;;;;;6078413;23;20021;-70
2023/01/07 11:54:57;;;;;;;10.55;8.98;;;11.10;99.90;;;;;;6084653;23;20010;-70
2023/01/07 11:57:25;;;;;;;11.93;10.02;;;11.10;99.90;;;;;;6081836;23;20006;-70
2023/01/07 12:00:09;;;;;;;13.40;9.90;;;11.10;99.90;;;;;;6082475;23;20006;-69
2023/01/07 12:02:35;;;;;;;14.00;10.45;;;11.20;99.90;;;;;;6077216;23;20608;-70
2023/01/07 12:05:21;;;;;;;12.95;9.38;;;11.10;99.90;;;;;;6079995;23;20089;-70
2023/01/07 12:07:49;;;;;;;13.80;9.05;;;11.10;99.90;;;;;;6084083;23;20381;-70
2023/01/07 12:10:36;;;;;;;12.68;8.90;;;11.20;99.90;;;;;;6086639;23;20302;-70
2023/01/07 12:13:15;;;;;;;12.55;9.95;;;11.20;99.90;;;;;;6081262;23;20018;-69
2023/01/07 12:15:56;;;;;;;12.00;9.07;;;11.20;99.90;;;;;;6085657;23;20039;-69
2023/01/07 12:18:43;;;;;;;11.48;7.95;;;11.20;99.90;;;;;;6083090;23;20006;-69
2023/01/07 12:21:14;;;;;;;11.73;9.27;;;11.20;99.90;;;;;;6081690;23;20006;-69
2023/01/07 12:23:48;;;;;;;8.97;7.40;;;11.20;99.90;;;;;;6079769;23;20014;-70
2023/01/07 12:26:36;;;;;;;15.77;10.68;;;11.20;99.90;;;;;;6081914;23;20019;-70
2023/01/07 12:29:10;;;;;;;11.48;8.30;;;11.30;99.90;;;;;;6082879;23;20016;-69
2023/01/07 12:31:52;;;;;;;14.30;10.15;;;11.30;99.90;;;;;;6081342;23;20015;-69
2023/01/07 12:34:57;;;;;;;11.68;9.35;;;11.30;99.90;;;;;;6080294;23;20013;-69
2023/01/07 12:37:39;;;;;;;14.63;8.88;;;11.30;99.90;;;;;;6084147;23;20010;-66
2023/01/07 12:40:20;;;;;;;15.75;8.57;;;11.40;99.90;;;;;;6082065;23;20006;-68
2023/01/07 12:43:08;;;;;;;9.70;8.65;;;11.50;99.90;;;;;;6083269;23;20010;-69
2023/01/07 12:45:56;;;;;;;12.30;9.75;;;11.50;99.90;;;;;;6083155;23;20013;-69
2023/01/07 12:48:39;;;;;;;12.70;11.18;;;11.50;99.90;;;;;;6083836;23;20010;-68
2023/01/07 12:51:13;;;;;;;12.68;8.52;;;11.50;99.90;;;;;;6084499;23;20523;-69
2023/01/07 12:54:04;;;;;;;11.50;8.60;;;11.60;99.90;;;;;;6083312;23;20026;-68
2023/01/07 12:57:00;;;;;;;11.23;9.05;;;11.50;99.90;;;;;;6082975;23;20006;-69
2023/01/07 12:59:57;;;;;;;13.32;9.68;;;11.50;99.90;;;;;;6082777;23;20006;-69
2023/01/07 13:02:43;;;;;;;11.50;9.45;;;11.50;99.90;;;;;;6044618;23;20429;-68
2023/01/07 13:05:42;;;;;;;10.30;9.20;;;11.60;99.90;;;;;;6079419;23;20014;-68
2023/01/07 13:08:22;;;;;;;10.38;7.90;;;11.50;99.90;;;;;;6074904;23;20038;-68